Time;durP1;ratioP1;P1;durP2;ratioP2;P2;SDS_P1;SDS_P2;PMS_P1;PMS_P2;Temp;Humidity;BMP_temperature;BMP_pressure;BME280_temperature;BME280_humidity;BME280_pressure;Samples;Min_cycle;Max_cycle;Signal;HPM_P1;HPM_P2
2022/05/26 00:02:13;;;;;;;;;;;;;;;16.08;60.06;99964.47;4474276;31;20340;-85
2022/05/26 00:04:38;;;;;;;;;;;;;;;15.79;60.05;99976.44;4487084;31;20035;-85
2022/05/26 00:07:03;;;;;;;;;;;;;;;15.84;60.05;99968.34;4501830;31;20015;-84
2022/05/26 00:09:29;;;;;;;;;;;;;;;15.90;60.05;99979.41;4495789;31;19979;-86
2022/05/26 00:11:54;;;;;;;;;;;;;;;15.94;60.06;99980.09;4471276;32;19992;-85
2022/05/26 00:14:19;;;;;;;;;;;;;;;15.79;60.04;99978.22;4485499;32;21999;-85
2022/05/26 00:16:45;;;;;;;;;;;;;;;15.65;60.04;99987.63;4485935;32;20022;-85
2022/05/26 00:19:10;;;;;;;;;;;;;;;15.58;60.03;99985.34;4471646;32;19997;-85
2022/05/26 00:21:36;;;;;;;;;;;;;;;15.57;60.04;99986.25;4471510;32;19995;-85
2022/05/26 00:24:02;;;;;;;;;;;;;;;15.46;60.02;99989.41;4471400;32;19996;-85
2022/05/26 00:26:27;;;;;;;;;;;;;;;15.55;60.04;99986.34;4485866;32;19991;-85
2022/05/26 00:28:52;;;;;;;;;;;;;;;15.60;60.03;99991.38;4458190;32;20017;-85
2022/05/26 00:31:18;;;;;;;;;;;;;;;15.60;60.03;99997.47;4485867;32;20010;-85
2022/05/26 00:33:43;;;;;;;;;;;;;;;15.63;60.04;100001.75;4485499;32;19972;-85
2022/05/26 00:36:10;;;;;;;;;;;;;;;15.55;60.04;99998.59;4471436;32;19988;-85
2022/05/26 00:38:35;;;;;;;;;;;;;;;15.59;60.04;100000.19;4471700;32;20073;-85
2022/05/26 00:41:04;;;;;;;;;;;;;;;15.33;60.03;100002.25;4485743;32;19981;-85
2022/05/26 00:43:30;;;;;;;;;;;;;;;15.39;60.02;100008.16;4485765;32;19987;-85
2022/05/26 00:45:59;;;;;;;;;;;;;;;15.42;60.03;100003.63;4485595;31;19988;-86
2022/05/26 00:48:26;;;;;;;;;;;;;;;15.32;60.03;100012.81;4471518;32;20293;-85
2022/05/26 00:50:54;;;;;;;;;;;;;;;15.47;60.03;100019.97;4458394;32;19977;-85
2022/05/26 00:53:27;;;;;;;;;;;;;;;15.58;60.03;100012.47;4471265;32;20033;-85
2022/05/26 00:55:57;;;;;;;;;;;;;;;15.63;60.04;100013.09;4471468;32;20049;-85
2022/05/26 00:58:28;;;;;;;;;;;;;;;15.51;60.04;100012.81;4471587;32;20007;-85
2022/05/26 01:00:53;;;;;;;;;;;;;;;15.52;60.03;100015.34;4470340;32;20366;-85
2022/05/26 01:03:20;;;;;;;;;;;;;;;15.47;60.03;100019.13;4471189;32;20000;-85
2022/05/26 01:05:45;;;;;;;;;;;;;;;15.41;60.03;100030.78;4471477;32;19980;-86
2022/05/26 01:08:13;;;;;;;;;;;;;;;15.56;60.04;100026.53;4471388;32;20038;-86
2022/05/26 01:10:38;;;;;;;;;;;;;;;15.46;60.03;100028.78;4471367;32;19977;-85
2022/05/26 01:13:03;;;;;;;;;;;;;;;15.39;60.02;100031.78;4485156;32;19968;-85
2022/05/26 01:15:29;;;;;;;;;;;;;;;15.38;60.02;100032.66;4471270;32;20008;-85
2022/05/26 01:18:08;;;;;;;;;;;;;;;15.38;60.02;100030.91;4458211;32;20004;-85
2022/05/26 01:20:46;;;;;;;;;;;;;;;15.25;60.03;100030.63;4457994;32;19977;-85
2022/05/26 01:23:32;;;;;;;;;;;;;;;15.15;60.01;100028.53;4471127;32;19976;-85
2022/05/26 01:26:00;;;;;;;;;;;;;;;15.25;60.03;100032.41;4476817;32;20380;-85
2022/05/26 01:28:31;;;;;;;;;;;;;;;15.18;60.02;100029.22;4485585;32;20012;-85
2022/05/26 01:31:12;;;;;;;;;;;;;;;15.26;60.02;100034.09;4470958;32;20028;-85
2022/05/26 01:33:40;;;;;;;;;;;;;;;15.30;60.02;100030.41;4470915;32;19980;-85
2022/05/26 01:36:10;;;;;;;;;;;;;;;15.29;60.02;100023.47;4458008;32;19992;-85
2022/05/26 01:38:35;;;;;;;;;;;;;;;15.16;60.02;100023.19;4471241;32;20015;-86
2022/05/26 01:41:09;;;;;;;;;;;;;;;15.03;60.01;100038.62;4471398;32;20620;-85
2022/05/26 01:43:43;;;;;;;;;;;;;;;15.11;60.01;100035.66;4485411;32;19972;-85
2022/05/26 01:46:27;;;;;;;;;;;;;;;15.02;60.01;100036.94;4485168;32;19976;-85
2022/05/26 01:48:57;;;;;;;;;;;;;;;15.13;60.01;100051.31;4470840;32;19992;-84
2022/05/26 01:51:22;;;;;;;;;;;;;;;14.96;60.01;100044.22;4470841;32;19973;-85
2022/05/26 01:53:51;;;;;;;;;;;;;;;14.86;59.99;100050.78;4470562;32;20246;-85
2022/05/26 01:56:19;;;;;;;;;;;;;;;14.94;60.00;100049.53;4470964;32;19995;-85
2022/05/26 01:58:49;;;;;;;;;;;;;;;14.99;60.00;100062.44;4470984;32;20007;-85
2022/05/26 02:01:16;;;;;;;;;;;;;;;14.90;59.99;100053.19;4470813;32;20299;-84
2022/05/26 02:03:42;;;;;;;;;;;;;;;14.89;60.00;100059.34;4471095;32;20023;-84
2022/05/26 02:06:10;;;;;;;;;;;;;;;14.95;60.00;100053.03;4470799;32;19984;-84
2022/05/26 02:08:40;;;;;;;;;;;;;;;14.84;59.99;100070.97;4470704;32;20052;-85
2022/05/26 02:11:09;;;;;;;;;;;;;;;14.78;59.99;100068.63;4470649;32;19998;-85
2022/05/26 02:13:42;;;;;;;;;;;;;;;14.77;59.99;100072.19;4472002;32;19973;-85
2022/05/26 02:16:12;;;;;;;;;;;;;;;14.79;60.00;100072.94;4472507;32;19988;-85
2022/05/26 02:18:41;;;;;;;;;;;;;;;14.78;60.00;100085.22;4472458;32;19996;-84
2022/05/26 02:21:11;;;;;;;;;;;;;;;14.68;59.98;100078.69;4472440;32;19985;-84
2022/05/26 02:23:45;;;;;;;;;;;;;;;14.71;59.98;100083.78;4472516;32;19972;-84
2022/05/26 02:26:10;;;;;;;;;;;;;;;14.69;59.98;100086.47;4486837;32;19972;-84
2022/05/26 02:31:21;;;;;;;;;;;;;;;14.55;59.97;100090.59;4474515;32;20042;-85
2022/05/26 02:33:46;;;;;;;;;;;;;;;14.60;59.98;100096.47;4472295;32;20006;-84
2022/05/26 02:36:11;;;;;;;;;;;;;;;14.57;59.98;100092.22;4471796;32;21089;-84
2022/05/26 02:38:36;;;;;;;;;;;;;;;14.68;59.99;100091.78;4472256;32;20565;-84
2022/05/26 02:41:01;;;;;;;;;;;;;;;14.63;59.98;100094.56;4486361;32;19980;-85
2022/05/26 02:43:27;;;;;;;;;;;;;;;14.56;59.98;100095.75;4486549;32;19995;-84
2022/05/26 02:46:02;;;;;;;;;;;;;;;14.57;59.98;100099.22;4472019;32;20262;-84
2022/05/26 02:48:45;;;;;;;;;;;;;;;14.43;59.97;100102.44;4486704;32;20048;-84
2022/05/26 02:51:14;;;;;;;;;;;;;;;14.43;59.97;100108.53;4486521;32;19979;-84
2022/05/26 02:53:58;;;;;;;;;;;;;;;14.38;59.97;100112.22;4472203;32;20032;-84
2022/05/26 02:56:29;;;;;;;;;;;;;;;14.39;59.97;100106.91;4486540;32;20003;-84
2022/05/26 02:58:57;;;;;;;;;;;;;;;14.46;59.97;100111.94;4486629;32;19987;-85
2022/05/26 03:01:33;;;;;;;;;;;;;;;14.47;59.97;100105.78;4486425;32;19987;-85
2022/05/26 03:04:01;;;;;;;;;;;;;;;14.32;59.96;100108.09;4459006;32;19994;-84
2022/05/26 03:06:29;;;;;;;;;;;;;;;14.57;59.98;100110.56;4472282;32;19980;-84
2022/05/26 03:08:54;;;;;;;;;;;;;;;14.41;59.98;100119.94;4472222;32;20379;-84
2022/05/26 03:11:20;;;;;;;;;;;;;;;14.37;59.97;100115.75;4472196;32;19976;-84
2022/05/26 03:13:45;;;;;;;;;;;;;;;14.28;59.97;100114.38;4472208;32;20019;-85
2022/05/26 03:16:10;;;;;;;;;;;;;;;14.12;59.96;100108.91;4472069;32;20036;-84
2022/05/26 03:18:36;;;;;;;;;;;;;;;14.21;59.96;100112.94;4472080;32;19996;-85
2022/05/26 03:21:01;;;;;;;;;;;;;;;14.06;59.95;100117.03;4471770;32;19985;-85
2022/05/26 03:23:26;;;;;;;;;;;;;;;13.90;59.95;100112.44;4471528;32;20007;-86
2022/05/26 03:25:53;;;;;;;;;;;;;;;13.96;59.95;100120.94;4486340;32;20002;-85
2022/05/26 03:28:18;;;;;;;;;;;;;;;13.98;59.94;100128.72;4472474;32;20007;-85
2022/05/26 03:30:43;;;;;;;;;;;;;;;14.26;59.96;100133.69;4471988;32;19972;-86
2022/05/26 03:33:09;;;;;;;;;;;;;;;14.31;59.96;100139.59;4471648;32;21493;-85
2022/05/26 03:41:03;;;;;;;;;;;;;;;14.69;59.98;100138.87;4486257;32;19994;-86
2022/05/26 03:43:32;;;;;;;;;;;;;;;14.71;59.98;100144.06;4486217;32;20301;-85
2022/05/26 03:45:58;;;;;;;;;;;;;;;14.82;59.99;100143.56;4471604;32;19992;-85
2022/05/26 03:48:23;;;;;;;;;;;;;;;14.90;59.99;100142.31;4471875;32;20048;-85
2022/05/26 03:50:48;;;;;;;;;;;;;;;15.11;60.01;100139.69;4485484;32;20515;-85
2022/05/26 03:53:13;;;;;;;;;;;;;;;15.16;60.02;100135.94;4471683;32;20077;-86
2022/05/26 03:55:40;;;;;;;;;;;;;;;15.30;60.02;100136.16;4471885;32;20003;-84
2022/05/26 03:58:05;;;;;;;;;;;;;;;15.21;60.01;100138.38;4486246;32;20041;-86
2022/05/26 04:00:31;;;;;;;;;;;;;;;15.33;60.02;100148.28;4471616;32;20654;-85
2022/05/26 04:02:56;;;;;;;;;;;;;;;15.30;60.02;100146.66;4471687;32;20245;-85
2022/05/26 04:05:22;;;;;;;;;;;;;;;15.52;60.03;100146.53;4485427;32;25744;-85
2022/05/26 04:07:47;;;;;;;;;;;;;;;15.36;60.02;100156.00;4471760;32;20002;-85
2022/05/26 04:10:13;;;;;;;;;;;;;;;15.35;60.02;100157.78;4471530;32;20265;-85
2022/05/26 04:12:38;;;;;;;;;;;;;;;15.31;60.03;100161.47;4471749;32;20244;-86
2022/05/26 04:15:04;;;;;;;;;;;;;;;15.46;60.02;100157.31;4485416;32;19992;-86
2022/05/26 04:17:29;;;;;;;;;;;;;;;15.53;60.03;100163.97;4486052;32;19984;-85
2022/05/26 04:19:54;;;;;;;;;;;;;;;15.59;60.03;100161.09;4485801;32;20017;-85
2022/05/26 04:22:21;;;;;;;;;;;;;;;15.68;60.04;100169.50;4471326;32;19995;-84
2022/05/26 04:24:48;;;;;;;;;;;;;;;15.86;60.04;100166.00;4485970;32;19996;-85
2022/05/26 04:27:14;;;;;;;;;;;;;;;16.02;60.06;100161.72;4458625;32;20008;-85
2022/05/26 04:29:39;;;;;;;;;;;;;;;16.29;60.07;100164.78;4485944;32;20018;-85
2022/05/26 04:32:04;;;;;;;;;;;;;;;16.23;60.06;100171.19;4485420;32;20322;-85
2022/05/26 04:34:29;;;;;;;;;;;;;;;16.18;60.07;100175.81;4471362;32;19977;-86
2022/05/26 04:36:55;;;;;;;;;;;;;;;16.06;60.06;100173.78;4471106;32;20020;-86
2022/05/26 04:39:20;;;;;;;;;;;;;;;15.98;60.05;100178.53;4484952;32;20023;-86
2022/05/26 04:41:45;;;;;;;;;;;;;;;16.13;60.06;100172.56;4471141;32;20008;-85
2022/05/26 04:44:11;;;;;;;;;;;;;;;16.27;60.07;100177.13;4471285;32;20046;-85
2022/05/26 04:46:36;;;;;;;;;;;;;;;16.50;60.08;100174.25;4470655;32;19980;-85
2022/05/26 04:49:02;;;;;;;;;;;;;;;16.52;60.09;100182.91;4471086;32;19996;-85
2022/05/26 04:51:28;;;;;;;;;;;;;;;16.61;60.09;100175.50;4485516;32;19972;-85
2022/05/26 04:53:54;;;;;;;;;;;;;;;16.41;60.08;100179.09;4485194;32;19984;-86
2022/05/26 04:56:19;;;;;;;;;;;;;;;16.52;60.08;100179.41;4471233;32;20004;-86
2022/05/26 04:58:46;;;;;;;;;;;;;;;16.62;60.08;100183.31;4485515;32;20008;-86
2022/05/26 05:01:12;;;;;;;;;;;;;;;16.98;60.11;100179.75;4471204;32;19996;-85
2022/05/26 05:03:37;;;;;;;;;;;;;;;17.12;60.11;100187.78;4470923;32;20243;-85
2022/05/26 05:06:02;;;;;;;;;;;;;;;17.18;60.12;100192.72;4470985;32;19988;-85
2022/05/26 05:08:28;;;;;;;;;;;;;;;17.28;60.12;100193.97;4485364;32;19972;-86
2022/05/26 05:10:53;;;;;;;;;;;;;;;17.36;60.13;100198.81;4470709;32;21876;-86
2022/05/26 05:13:18;;;;;;;;;;;;;;;17.53;60.13;100196.16;4485259;32;20013;-85
2022/05/26 05:15:50;;;;;;;;;;;;;;;17.59;60.14;100192.34;4471170;32;20506;-85
2022/05/26 05:18:16;;;;;;;;;;;;;;;17.79;60.16;100200.03;4471214;32;19976;-85
2022/05/26 05:20:41;;;;;;;;;;;;;;;17.81;60.15;100202.59;4472155;32;19995;-85
2022/05/26 05:23:07;;;;;;;;;;;;;;;18.10;60.17;100209.72;4473733;32;20023;-87
2022/05/26 05:25:34;;;;;;;;;;;;;;;18.12;60.17;100209.63;4472168;32;20020;-86
2022/05/26 05:28:04;;;;;;;;;;;;;;;18.18;60.18;100207.50;4458299;32;20006;-86
2022/05/26 05:30:38;;;;;;;;;;;;;;;18.26;60.18;100212.38;4470798;32;19980;-86
2022/05/26 05:33:10;;;;;;;;;;;;;;;18.23;60.18;100210.75;4470961;32;20003;-85
2022/05/26 05:35:42;;;;;;;;;;;;;;;18.02;60.16;100223.34;4470992;32;20114;-86
2022/05/26 05:38:07;;;;;;;;;;;;;;;18.27;60.17;100217.53;4485193;32;19972;-85
2022/05/26 05:40:32;;;;;;;;;;;;;;;18.38;60.18;100227.47;4485137;32;19995;-85
2022/05/26 05:42:58;;;;;;;;;;;;;;;18.54;60.18;100225.66;4470830;32;19995;-86
2022/05/26 05:45:23;;;;;;;;;;;;;;;18.55;60.19;100232.63;4470417;31;19996;-86
2022/05/26 05:47:49;;;;;;;;;;;;;;;18.66;60.19;100226.75;4484094;32;21419;-85
2022/05/26 05:50:14;;;;;;;;;;;;;;;18.81;60.20;100228.53;4470990;32;19984;-85
2022/05/26 05:52:39;;;;;;;;;;;;;;;18.77;60.21;100219.09;4470448;32;19996;-85
2022/05/26 05:55:05;;;;;;;;;;;;;;;18.82;60.20;100232.00;4470205;32;20040;-86
2022/05/26 05:57:30;;;;;;;;;;;;;;;19.05;60.21;100231.50;4470516;32;19972;-86
2022/05/26 05:59:56;;;;;;;;;;;;;;;19.23;60.22;100229.56;4485073;32;20675;-85
2022/05/26 06:02:21;;;;;;;;;;;;;;;19.40;60.24;100224.13;4470382;32;20345;-85
2022/05/26 06:04:46;;;;;;;;;;;;;;;19.72;60.26;100216.03;4485067;32;20277;-85
2022/05/26 06:07:13;;;;;;;;;;;;;;;19.81;60.26;100226.03;4485075;32;20358;-86
2022/05/26 06:09:38;;;;;;;;;;;;;;;19.97;60.27;100229.41;4470716;32;20130;-86
2022/05/26 06:12:03;;;;;;;;;;;;;;;20.19;60.28;100229.75;4484954;32;19993;-86
2022/05/26 06:14:28;;;;;;;;;;;;;;;20.14;60.27;100228.34;4484843;32;20016;-85
2022/05/26 06:16:54;;;;;;;;;;;;;;;20.35;60.28;100236.69;4470393;32;19988;-86
2022/05/26 06:19:19;;;;;;;;;;;;;;;20.51;60.29;100240.91;4484695;32;19973;-86
2022/05/26 06:21:44;;;;;;;;;;;;;;;20.76;60.31;100236.63;4484914;32;20400;-86
2022/05/26 06:24:10;;;;;;;;;;;;;;;20.57;60.30;100247.56;4484920;32;19988;-86
2022/05/26 06:26:36;;;;;;;;;;;;;;;20.52;60.29;100253.16;4484591;32;20435;-86
2022/05/26 06:37:13;;;;;;;;;;;;;;;20.86;60.32;100264.19;4484674;32;20122;-86
2022/05/26 06:37:14;;;;;;;;;;;;;;;20.90;60.32;100265.69;4472401;32;19987;-85
2022/05/26 06:39:39;;;;;;;;;;;;;;;20.86;60.32;100276.59;4484514;32;19985;-85
2022/05/26 06:42:05;;;;;;;;;;;;;;;21.17;60.32;100278.88;4470051;32;19999;-86
2022/05/26 06:44:30;;;;;;;;;;;;;;;21.22;60.33;100281.19;4470159;32;20027;-86
2022/05/26 06:46:55;;;;;;;;;;;;;;;21.54;60.34;100279.91;4484229;32;20549;-86
2022/05/26 06:49:21;;;;;;;;;;;;;;;21.84;60.37;100263.66;4470148;32;19981;-86
2022/05/26 06:51:46;;;;;;;;;;;;;;;22.02;60.38;100267.66;4483887;32;19968;-86
2022/05/26 06:54:11;;;;;;;;;;;;;;;22.25;60.38;100260.75;4483956;32;20066;-85
2022/05/26 06:56:36;;;;;;;;;;;;;;;22.27;60.39;100264.13;4484321;32;19992;-86
2022/05/26 06:59:02;;;;;;;;;;;;;;;22.44;60.40;100262.03;4485418;32;19977;-86
2022/05/26 07:01:27;;;;;;;;;;;;;;;22.52;60.40;100260.53;4486615;32;19981;-86
2022/05/26 07:03:52;;;;;;;;;;;;;;;22.77;60.42;100264.03;4472072;32;19985;-86
2022/05/26 07:06:24;;;;;;;;;;;;;;;22.99;60.43;100252.69;4485739;32;22950;-86
2022/05/26 07:08:49;;;;;;;;;;;;;;;23.01;60.43;100251.59;4486542;32;20295;-85
2022/05/26 07:11:15;;;;;;;;;;;;;;;23.07;60.43;100245.81;4458933;32;19989;-85
2022/05/26 07:13:40;;;;;;;;;;;;;;;23.25;60.44;100252.38;4486641;32;19996;-86
2022/05/26 07:16:05;;;;;;;;;;;;;;;23.41;60.44;100259.16;4486733;32;20012;-86
2022/05/26 07:18:31;;;;;;;;;;;;;;;23.44;60.45;100254.47;4472008;32;19976;-86
2022/05/26 07:20:56;;;;;;;;;;;;;;;23.26;60.44;100253.22;4472038;32;19988;-86
2022/05/26 07:23:21;;;;;;;;;;;;;;;23.33;60.44;100265.06;4486432;32;20010;-86
2022/05/26 07:25:47;;;;;;;;;;;;;;;23.35;60.45;100265.78;4458812;32;19976;-86
2022/05/26 07:28:12;;;;;;;;;;;;;;;23.39;60.45;100269.91;4486301;32;20207;-86
2022/05/26 07:30:38;;;;;;;;;;;;;;;23.21;60.44;100269.53;4485871;32;20092;-86
2022/05/26 07:33:03;;;;;;;;;;;;;;;23.32;60.44;100270.50;4486276;32;19976;-85
2022/05/26 07:35:28;;;;;;;;;;;;;;;23.29;60.45;100274.25;4471732;32;19997;-86
2022/05/26 07:43:35;;;;;;;;;;;;;;;23.01;60.43;100267.53;4442456;32;20574;-85
2022/05/26 07:46:00;;;;;;;;;;;;;;;23.17;60.44;100283.12;4485902;31;20350;-86
2022/05/26 07:48:26;;;;;;;;;;;;;;;23.31;60.45;100280.28;4471767;32;20344;-86
2022/05/26 07:50:51;;;;;;;;;;;;;;;23.31;60.44;100284.75;4485842;32;19984;-86
2022/05/26 07:53:16;;;;;;;;;;;;;;;23.48;60.46;100290.47;4471492;32;20088;-86
2022/05/26 07:55:42;;;;;;;;;;;;;;;23.56;60.46;100296.06;4486074;32;19973;-86
2022/05/26 07:58:11;;;;;;;;;;;;;;;23.36;60.45;100294.06;4471536;32;20019;-86
2022/05/26 08:00:36;;;;;;;;;;;;;;;23.30;60.45;100294.53;4485967;32;19976;-85
2022/05/26 08:03:02;;;;;;;;;;;;;;;23.50;60.46;100285.88;4486118;32;20040;-86
2022/05/26 08:05:27;;;;;;;;;;;;;;;23.56;60.46;100288.09;4471615;32;20319;-86
2022/05/26 08:07:52;;;;;;;;;;;;;;;23.71;60.46;100293.19;4471482;32;19984;-86
2022/05/26 08:10:17;;;;;;;;;;;;;;;23.81;60.48;100289.69;4485341;32;19973;-86
2022/05/26 08:12:43;;;;;;;;;;;;;;;23.81;60.47;100286.19;4471534;32;19992;-85
2022/05/26 08:15:10;;;;;;;;;;;;;;;23.76;60.47;100288.34;4485530;32;20029;-86
2022/05/26 08:17:35;;;;;;;;;;;;;;;23.95;60.48;100283.28;4486117;32;20321;-85
2022/05/26 08:20:01;;;;;;;;;;;;;;;24.13;60.50;100279.16;4471564;32;20003;-86
2022/05/26 08:22:26;;;;;;;;;;;;;;;23.92;60.48;100288.84;4485930;32;20011;-86
2022/05/26 08:24:52;;;;;;;;;;;;;;;24.29;60.50;100283.28;4485936;32;19987;-86
2022/05/26 08:27:17;;;;;;;;;;;;;;;24.49;60.50;100283.34;4485899;32;20013;-86
2022/05/26 08:29:42;;;;;;;;;;;;;;;24.34;60.50;100286.41;4485850;32;19977;-86
2022/05/26 08:32:08;;;;;;;;;;;;;;;24.50;60.50;100276.22;4485807;32;20017;-86
2022/05/26 08:34:33;;;;;;;;;;;;;;;24.54;60.52;100276.81;4471504;32;19988;-86
2022/05/26 08:36:58;;;;;;;;;;;;;;;24.39;60.51;100278.91;4485882;32;19972;-85
2022/05/26 08:39:24;;;;;;;;;;;;;;;24.43;60.50;100272.38;4485438;32;20932;-85
2022/05/26 08:41:49;;;;;;;;;;;;;;;24.66;60.52;100279.31;4471459;32;20257;-86
2022/05/26 08:44:35;;;;;;;;;;;;;;;24.78;60.53;100286.28;4471353;32;20004;-86
2022/05/26 08:47:20;;;;;;;;;;;;;;;25.12;60.53;100283.53;4484941;32;20340;-85
2022/05/26 08:49:56;;;;;;;;;;;;;;;25.49;60.56;100280.38;4471618;32;19984;-86
2022/05/26 08:52:27;;;;;;;;;;;;;;;25.66;60.57;100279.78;4471636;32;19992;-86
2022/05/26 08:54:54;;;;;;;;;;;;;;;25.90;60.58;100280.34;4485633;32;19973;-86
2022/05/26 08:57:27;;;;;;;;;;;;;;;26.07;60.59;100276.19;4471337;32;19984;-85
2022/05/26 08:59:53;;;;;;;;;;;;;;;26.14;60.59;100271.16;4471420;32;20071;-86
2022/05/26 09:02:34;;;;;;;;;;;;;;;26.45;60.62;100272.78;4471377;32;20287;-86
2022/05/26 09:05:04;;;;;;;;;;;;;;;26.56;60.62;100278.03;4471523;32;20002;-86
2022/05/26 09:13:05;;;;;;;;;;;;;;;25.98;60.59;100277.84;4473500;32;20006;-86
2022/05/26 09:15:32;;;;;;;;;;;;;;;25.96;60.59;100284.28;4471688;32;20048;-85
2022/05/26 09:17:57;;;;;;;;;;;;;;;26.01;60.59;100276.72;4471340;32;19999;-86
2022/05/26 09:20:23;;;;;;;;;;;;;;;26.14;60.59;100293.34;4471169;32;19996;-85
2022/05/26 09:22:48;;;;;;;;;;;;;;;26.07;60.59;100288.69;4484307;32;20013;-85
2022/05/26 09:25:27;;;;;;;;;;;;;;;26.13;60.60;100290.81;4458069;32;19985;-86
2022/05/26 09:27:52;;;;;;;;;;;;;;;26.22;60.60;100281.97;4471261;32;19999;-86
2022/05/26 09:30:17;;;;;;;;;;;;;;;26.42;60.61;100280.25;4471108;32;19976;-85
2022/05/26 09:32:43;;;;;;;;;;;;;;;26.33;60.61;100278.38;4485409;32;19985;-86
2022/05/26 09:35:28;;;;;;;;;;;;;;;26.47;60.61;100281.50;4470565;32;20013;-86
2022/05/26 09:37:55;;;;;;;;;;;;;;;26.56;60.63;100286.03;4485113;32;19992;-86
2022/05/26 09:40:21;;;;;;;;;;;;;;;26.56;60.63;100283.38;4471196;32;20056;-85
2022/05/26 09:42:54;;;;;;;;;;;;;;;26.51;60.62;100272.28;4471064;32;20367;-86
2022/05/26 09:45:19;;;;;;;;;;;;;;;26.64;60.63;100268.47;4485292;31;20360;-85
2022/05/26 09:47:54;;;;;;;;;;;;;;;26.78;60.63;100268.06;4485571;32;19991;-85
2022/05/26 09:50:40;;;;;;;;;;;;;;;26.78;60.63;100271.59;4485480;32;20607;-85
2022/05/26 09:53:06;;;;;;;;;;;;;;;26.95;60.64;100279.88;4471042;32;19996;-85
2022/05/26 09:55:35;;;;;;;;;;;;;;;27.23;60.65;100278.22;4485301;32;19972;-86
2022/05/26 09:58:03;;;;;;;;;;;;;;;27.55;60.67;100278.69;4485424;32;19973;-86
2022/05/26 10:00:36;;;;;;;;;;;;;;;27.41;60.66;100271.13;4485211;32;19999;-86
2022/05/26 10:03:03;;;;;;;;;;;;;;;27.39;60.66;100278.44;4485421;32;19989;-86
2022/05/26 10:05:37;;;;;;;;;;;;;;;27.56;60.67;100288.41;4470961;32;19993;-87
2022/05/26 10:08:02;;;;;;;;;;;;;;;27.63;60.67;100268.13;4457850;32;19997;-86
2022/05/26 10:10:41;;;;;;;;;;;;;;;27.96;60.69;100260.56;4484997;32;20007;-85
2022/05/26 10:13:06;;;;;;;;;;;;;;;27.74;60.69;100278.66;4470723;32;19992;-86
2022/05/26 10:15:40;;;;;;;;;;;;;;;27.86;60.69;100267.75;4484840;32;19968;-85
2022/05/26 10:18:24;;;;;;;;;;;;;;;27.69;60.69;100272.06;4470572;32;19980;-85
2022/05/26 10:20:49;;;;;;;;;;;;;;;27.75;60.69;100276.84;4485007;32;19993;-85
2022/05/26 10:23:23;;;;;;;;;;;;;;;27.92;60.70;100276.06;4484882;32;19976;-85
2022/05/26 10:26:01;;;;;;;;;;;;;;;28.09;60.70;100267.22;4484724;32;19968;-85
2022/05/26 10:28:35;;;;;;;;;;;;;;;28.23;60.71;100267.72;4470246;32;19980;-85
2022/05/26 10:31:00;;;;;;;;;;;;;;;28.26;60.71;100259.44;4484705;32;19976;-84
2022/05/26 10:33:34;;;;;;;;;;;;;;;28.22;60.71;100258.03;4485086;32;20392;-84
2022/05/26 10:35:59;;;;;;;;;;;;;;;28.43;60.72;100262.16;4472453;32;19995;-84
2022/05/26 10:38:42;;;;;;;;;;;;;;;28.47;60.72;100264.50;4486528;32;19972;-84
2022/05/26 10:41:23;;;;;;;;;;;;;;;28.51;60.72;100255.19;4486451;32;20371;-84
2022/05/26 10:43:55;;;;;;;;;;;;;;;28.29;60.72;100268.00;4472333;32;20008;-84
2022/05/26 10:46:21;;;;;;;;;;;;;;;28.60;60.73;100270.31;4472116;32;20027;-84
2022/05/26 10:48:52;;;;;;;;;;;;;;;28.79;60.75;100263.97;4471992;32;20035;-84
2022/05/26 10:51:19;;;;;;;;;;;;;;;29.11;60.76;100264.31;4486404;32;20040;-83
2022/05/26 10:53:45;;;;;;;;;;;;;;;29.10;60.76;100264.44;4472145;32;19984;-83
2022/05/26 10:56:11;;;;;;;;;;;;;;;29.19;60.76;100252.78;4472063;32;20458;-83
2022/05/26 10:58:38;;;;;;;;;;;;;;;28.65;60.73;100266.22;4472062;32;19976;-83
2022/05/26 11:01:05;;;;;;;;;;;;;;;28.72;60.74;100256.56;4472148;32;20030;-84
2022/05/26 11:03:35;;;;;;;;;;;;;;;28.99;60.75;100257.50;4472288;32;20048;-84
2022/05/26 11:06:05;;;;;;;;;;;;;;;28.68;60.75;100263.22;4472312;32;19964;-84
2022/05/26 11:08:35;;;;;;;;;;;;;;;28.60;60.73;100263.13;4472029;32;20294;-84
2022/05/26 11:11:24;;;;;;;;;;;;;;;28.45;60.73;100262.00;4459190;32;20436;-83
2022/05/26 11:13:52;;;;;;;;;;;;;;;28.52;60.72;100252.34;4479701;32;20335;-84
2022/05/26 11:19:17;;;;;;;;;;;;;;;28.30;60.72;100245.59;4486496;32;19983;-84
2022/05/26 11:21:42;;;;;;;;;;;;;;;28.30;60.72;100245.59;4486470;32;20321;-83
2022/05/26 11:24:10;;;;;;;;;;;;;;;28.32;60.72;100237.41;4486176;32;20007;-83
2022/05/26 11:26:43;;;;;;;;;;;;;;;28.41;60.73;100242.72;4472102;32;19987;-83
2022/05/26 11:29:15;;;;;;;;;;;;;;;28.38;60.73;100240.31;4472059;32;20369;-83
2022/05/26 11:37:17;;;;;;;;;;;;;;;28.44;60.73;100230.84;4474343;32;20109;-84
2022/05/26 11:39:43;;;;;;;;;;;;;;;28.69;60.75;100234.59;4486368;32;20347;-84
2022/05/26 11:42:13;;;;;;;;;;;;;;;28.62;60.74;100231.66;4485988;32;20004;-84
2022/05/26 11:44:45;;;;;;;;;;;;;;;28.59;60.73;100234.66;4485734;32;19992;-83
2022/05/26 11:47:30;;;;;;;;;;;;;;;28.68;60.75;100232.91;4471566;32;20119;-84
2022/05/26 11:49:55;;;;;;;;;;;;;;;28.91;60.75;100227.97;4486367;32;20286;-84
2022/05/26 11:52:26;;;;;;;;;;;;;;;28.71;60.74;100230.78;4486366;32;20000;-83
2022/05/26 11:55:03;;;;;;;;;;;;;;;28.74;60.74;100221.56;4486051;32;19995;-84
2022/05/26 11:57:48;;;;;;;;;;;;;;;28.83;60.74;100225.16;4486114;32;19976;-84
2022/05/26 12:00:21;;;;;;;;;;;;;;;28.28;60.72;100230.66;4471679;32;19972;-84
2022/05/26 12:02:47;;;;;;;;;;;;;;;28.10;60.71;100223.41;4471760;32;20009;-84
2022/05/26 12:05:30;;;;;;;;;;;;;;;28.04;60.71;100223.19;4471709;32;20003;-84
2022/05/26 12:08:03;;;;;;;;;;;;;;;28.23;60.73;100215.03;4485944;32;19988;-84
2022/05/26 12:10:29;;;;;;;;;;;;;;;28.56;60.74;100207.34;4471594;32;19987;-84
2022/05/26 12:13:13;;;;;;;;;;;;;;;28.71;60.74;100205.81;4471663;32;20001;-83
2022/05/26 12:15:38;;;;;;;;;;;;;;;28.73;60.74;100196.63;4471654;32;19992;-83
2022/05/26 12:18:03;;;;;;;;;;;;;;;28.60;60.75;100204.19;4470903;32;23326;-83
2022/05/26 12:20:29;;;;;;;;;;;;;;;28.46;60.73;100195.88;4458355;32;19999;-83
2022/05/26 12:22:55;;;;;;;;;;;;;;;28.35;60.72;100192.41;4485970;32;20253;-84
2022/05/26 12:25:36;;;;;;;;;;;;;;;28.46;60.74;100195.88;4485872;32;19980;-84
2022/05/26 12:28:11;;;;;;;;;;;;;;;28.49;60.74;100184.84;4471706;32;19999;-84
2022/05/26 12:30:43;;;;;;;;;;;;;;;28.57;60.74;100196.47;4471612;32;19984;-84
2022/05/26 12:33:18;;;;;;;;;;;;;;;28.18;60.72;100192.41;4485820;32;20036;-84
2022/05/26 12:36:02;;;;;;;;;;;;;;;27.96;60.70;100190.97;4471463;32;19992;-84
2022/05/26 12:38:46;;;;;;;;;;;;;;;27.92;60.71;100186.91;4486152;32;20555;-84
2022/05/26 12:41:21;;;;;;;;;;;;;;;28.32;60.73;100178.50;4485800;32;19976;-84
2022/05/26 12:43:49;;;;;;;;;;;;;;;28.29;60.73;100181.47;4485826;32;20003;-84
2022/05/26 12:46:17;;;;;;;;;;;;;;;28.09;60.71;100186.94;4471247;32;19984;-84
2022/05/26 12:48:45;;;;;;;;;;;;;;;27.75;60.70;100185.87;4485870;32;19984;-84
2022/05/26 12:51:11;;;;;;;;;;;;;;;27.67;60.70;100193.78;4485714;32;20023;-84
2022/05/26 12:53:36;;;;;;;;;;;;;;;27.76;60.70;100188.41;4471400;32;20024;-84
2022/05/26 12:56:06;;;;;;;;;;;;;;;27.66;60.70;100192.94;4471230;32;20362;-84
2022/05/26 12:58:32;;;;;;;;;;;;;;;27.61;60.68;100187.16;4471090;32;19980;-84
2022/05/26 13:00:57;;;;;;;;;;;;;;;27.62;60.69;100188.00;4485643;32;20003;-84
2022/05/26 13:03:24;;;;;;;;;;;;;;;28.02;60.71;100171.63;4485614;32;19977;-84
2022/05/26 13:05:52;;;;;;;;;;;;;;;28.17;60.72;100180.00;4471344;32;20049;-84
2022/05/26 13:08:20;;;;;;;;;;;;;;;28.22;60.73;100172.34;4471365;32;20069;-83
2022/05/26 13:10:45;;;;;;;;;;;;;;;28.60;60.75;100168.53;4471203;32;19983;-84
2022/05/26 13:13:17;;;;;;;;;;;;;;;28.86;60.76;100168.59;4485524;32;19976;-84
2022/05/26 13:15:42;;;;;;;;;;;;;;;29.09;60.76;100169.78;4471392;32;20059;-84
2022/05/26 13:18:15;;;;;;;;;;;;;;;28.97;60.76;100157.66;4485599;32;19973;-84